createdAt,value
2023-05-15T00:02:44.694Z,96.64
2023-05-15T00:07:47.160Z,96.49
2023-05-15T00:12:49.374Z,96.49
2023-05-15T00:17:51.083Z,95.98
2023-05-15T00:22:52.967Z,96.07
2023-05-15T00:27:54.823Z,96.11
2023-05-15T00:32:57.342Z,95.23
2023-05-15T00:37:59.252Z,95.19
2023-05-15T00:43:02.559Z,95.49
2023-05-15T00:48:05.712Z,95.65
2023-05-15T00:53:07.916Z,94.88
2023-05-15T00:58:10.817Z,94.55
2023-05-15T01:03:12.540Z,95.15
2023-05-15T01:08:45.861Z,94.94
2023-05-15T01:13:47.823Z,94.38
2023-05-15T01:18:49.800Z,93.20
2023-05-15T01:24:34.397Z,92.42
2023-05-15T01:29:42.691Z,92.38
2023-05-15T01:34:53.368Z,93.01
2023-05-15T01:40:00.825Z,93.60
2023-05-15T01:45:11.157Z,93.90
2023-05-15T01:50:15.624Z,94.25
2023-05-15T01:55:20.580Z,94.49
2023-05-15T02:00:22.777Z,94.56
2023-05-15T02:05:27.052Z,94.94
2023-05-15T02:10:29.385Z,95.18
2023-05-15T02:15:31.827Z,95.34
2023-05-15T02:20:33.684Z,95.73
2023-05-15T02:26:14.036Z,95.92
2023-05-15T02:31:34.742Z,96.08
2023-05-15T02:36:41.711Z,95.84
2023-05-15T02:41:46.744Z,95.63
2023-05-15T02:46:51.104Z,95.72
2023-05-15T02:51:52.929Z,96.57
2023-05-15T02:56:54.940Z,96.69
2023-05-15T03:01:56.697Z,96.39
2023-05-15T03:06:58.978Z,96.59
2023-05-15T03:12:00.766Z,96.78
2023-05-15T03:17:03.282Z,96.59
2023-05-15T03:22:05.100Z,96.78
2023-05-15T03:27:06.821Z,96.89
2023-05-15T03:32:08.888Z,97.36
2023-05-15T03:37:10.714Z,97.11
2023-05-15T03:42:12.486Z,96.77
2023-05-15T03:47:16.095Z,97.51
2023-05-15T03:52:17.915Z,97.38
2023-05-15T03:57:20.280Z,97.29
2023-05-15T04:02:22.219Z,97.84
2023-05-15T04:07:24.104Z,98.11
2023-05-15T04:12:28.138Z,97.91
2023-05-15T04:17:30.532Z,98.35
2023-05-15T04:22:32.312Z,98.30
2023-05-15T04:27:34.019Z,98.84
2023-05-15T04:32:36.395Z,99.20
2023-05-15T04:37:42.868Z,99.58
2023-05-15T04:42:44.590Z,99.49
2023-05-15T04:47:46.310Z,99.53
2023-05-15T04:52:48.436Z,99.47
2023-05-15T04:57:51.165Z,99.73
2023-05-15T05:02:52.990Z,99.96
2023-05-15T05:07:54.689Z,99.68
2023-05-15T05:12:56.555Z,99.95
2023-05-15T05:17:58.703Z,100.00
2023-05-15T05:23:00.593Z,100.00
2023-05-15T05:28:02.466Z,100.00
2023-05-15T05:33:04.266Z,100.00
2023-05-15T05:38:06.265Z,100.00
2023-05-15T05:43:08.101Z,99.98
2023-05-15T05:48:10.062Z,98.50
2023-05-15T05:53:12.031Z,99.04
2023-05-15T05:58:24.076Z,100.00
2023-05-15T06:03:27.684Z,100.00
2023-05-15T06:08:30.353Z,100.00
2023-05-15T06:13:32.785Z,100.00
2023-05-15T06:18:34.546Z,100.00
2023-05-15T06:23:37.361Z,100.00
2023-05-15T06:28:39.249Z,100.00
2023-05-15T06:33:41.249Z,100.00
2023-05-15T06:38:42.921Z,100.00
2023-05-15T06:43:44.655Z,100.00
2023-05-15T06:48:48.082Z,100.00
2023-05-15T06:53:49.751Z,100.00
2023-05-15T06:58:51.409Z,100.00
2023-05-15T07:03:53.114Z,100.00
2023-05-15T07:08:54.820Z,100.00
2023-05-15T07:13:56.644Z,100.00
2023-05-15T07:18:58.490Z,100.00
2023-05-15T07:24:00.431Z,100.00
2023-05-15T07:29:02.171Z,100.00
2023-05-15T07:34:04.032Z,100.00
2023-05-15T07:39:05.967Z,100.00
2023-05-15T07:44:07.906Z,100.00
2023-05-15T07:49:09.608Z,100.00
2023-05-15T07:54:11.725Z,100.00
2023-05-15T07:59:13.931Z,98.37
2023-05-15T08:04:15.865Z,98.01
2023-05-15T08:09:17.635Z,97.02
2023-05-15T08:14:19.248Z,92.15
2023-05-15T08:19:22.029Z,89.91
2023-05-15T08:24:24.119Z,87.44
2023-05-15T08:29:26.135Z,87.88
2023-05-15T08:34:28.787Z,85.48
2023-05-15T08:39:30.684Z,86.56
2023-05-15T08:44:33.206Z,85.69
2023-05-15T08:50:04.959Z,85.28
2023-05-15T08:55:07.371Z,84.30
2023-05-15T09:00:11.950Z,84.89
2023-05-15T09:05:13.655Z,84.03
2023-05-15T09:10:16.312Z,84.95
2023-05-15T09:15:23.093Z,84.42
2023-05-15T09:20:31.147Z,83.86
2023-05-15T09:25:44.850Z,81.70
2023-05-15T09:30:46.648Z,84.85
2023-05-15T09:35:48.339Z,82.14
2023-05-15T09:40:50.441Z,81.60
2023-05-15T09:45:52.439Z,80.93
2023-05-15T09:50:55.277Z,78.91
2023-05-15T09:55:57.058Z,76.98
2023-05-15T10:01:00.050Z,77.06
2023-05-15T10:06:03.565Z,76.76
2023-05-15T10:11:06.361Z,75.01
2023-05-15T10:16:08.643Z,72.55
2023-05-15T10:21:11.902Z,73.40
2023-05-15T10:26:16.747Z,72.06
2023-05-15T10:31:18.728Z,72.35
2023-05-15T10:36:21.048Z,72.05
2023-05-15T10:41:23.739Z,71.40
2023-05-15T10:46:26.720Z,70.19
2023-05-15T10:51:30.756Z,70.59
2023-05-15T10:56:38.599Z,69.46
2023-05-15T11:01:43.409Z,68.27
2023-05-15T11:06:47.611Z,70.89
2023-05-15T11:11:52.289Z,70.85
2023-05-15T11:16:54.159Z,68.93
2023-05-15T11:22:00.573Z,68.94
2023-05-15T11:27:04.855Z,69.05
2023-05-15T11:32:40.074Z,67.40
2023-05-15T11:37:43.535Z,67.66
2023-05-15T11:43:04.484Z,68.88
2023-05-15T11:48:08.332Z,67.09
2023-05-15T11:53:10.543Z,65.74
2023-05-15T11:58:17.394Z,66.96
2023-05-15T12:03:24.964Z,67.70
2023-05-15T12:08:32.418Z,68.10
2023-05-15T12:13:34.943Z,69.11
2023-05-15T12:18:36.764Z,65.90
2023-05-15T12:23:38.533Z,66.55
2023-05-15T12:28:40.431Z,66.49
2023-05-15T12:33:43.130Z,66.34
2023-05-15T12:38:44.808Z,63.34
2023-05-15T12:43:46.533Z,60.16
2023-05-15T12:48:49.690Z,59.29
2023-05-15T12:53:54.509Z,61.27
2023-05-15T12:58:56.459Z,60.85
2023-05-15T13:03:58.847Z,59.47
2023-05-15T13:09:00.784Z,58.98
2023-05-15T13:14:11.177Z,59.12
2023-05-15T13:19:13.265Z,57.17
2023-05-15T13:24:15.009Z,58.17
2023-05-15T13:29:16.741Z,57.80
2023-05-15T13:34:18.683Z,56.62
2023-05-15T13:39:20.419Z,57.31
2023-05-15T13:44:22.130Z,59.01
2023-05-15T13:49:24.018Z,57.53
2023-05-15T13:54:25.724Z,58.58
2023-05-15T13:59:27.444Z,60.69
2023-05-15T14:04:29.451Z,60.01
2023-05-15T14:09:32.195Z,60.44
2023-05-15T14:14:33.873Z,60.23
2023-05-15T14:19:35.504Z,59.37
2023-05-15T14:24:37.427Z,59.95
2023-05-15T14:29:39.774Z,59.77
2023-05-15T14:34:41.603Z,59.01
2023-05-15T14:39:43.249Z,59.64
2023-05-15T14:44:45.098Z,58.33
2023-05-15T14:49:47.467Z,58.54
2023-05-15T14:55:00.751Z,58.56
2023-05-15T15:00:11.056Z,59.11
2023-05-15T15:05:12.903Z,62.12
2023-05-15T15:10:14.730Z,64.31
2023-05-15T15:15:17.242Z,66.80
2023-05-15T15:20:20.433Z,68.22
2023-05-15T15:25:22.533Z,69.17
2023-05-15T15:30:24.360Z,68.97
2023-05-15T15:35:26.315Z,66.87
2023-05-15T15:40:29.810Z,66.83
2023-05-15T15:45:31.808Z,66.78
2023-05-15T15:50:33.497Z,67.63
2023-05-15T15:55:35.177Z,67.10
2023-05-15T16:00:37.409Z,65.80
2023-05-15T16:05:39.254Z,66.13
2023-05-15T16:10:41.090Z,66.93
2023-05-15T16:15:42.744Z,67.24
2023-05-15T16:20:45.027Z,67.63
2023-05-15T16:25:46.707Z,67.83
2023-05-15T16:30:50.876Z,67.66
2023-05-15T16:35:53.059Z,68.35
2023-05-15T16:40:54.772Z,68.91
2023-05-15T16:45:56.509Z,69.02
2023-05-15T16:50:58.239Z,69.67
2023-05-15T16:56:00.371Z,70.57
2023-05-15T17:01:02.180Z,70.80
2023-05-15T17:06:04.277Z,71.04
2023-05-15T17:11:05.923Z,71.20
2023-05-15T17:16:08.630Z,71.67
2023-05-15T17:21:11.047Z,72.09
2023-05-15T17:26:12.685Z,72.02
2023-05-15T17:31:14.364Z,72.28
2023-05-15T17:36:16.272Z,72.08
2023-05-15T17:41:18.128Z,71.89
2023-05-15T17:46:19.801Z,71.71
2023-05-15T17:51:21.583Z,71.63
2023-05-15T17:56:23.327Z,71.39
2023-05-15T18:01:24.979Z,71.36
2023-05-15T18:06:26.725Z,71.05
2023-05-15T18:11:28.504Z,71.08
2023-05-15T18:16:31.348Z,71.40
2023-05-15T18:21:35.119Z,71.44
2023-05-15T18:26:38.650Z,71.73
2023-05-15T18:31:40.454Z,72.07
2023-05-15T18:36:42.460Z,72.56
2023-05-15T18:41:44.377Z,73.15
2023-05-15T18:46:46.330Z,73.22
2023-05-15T18:51:48.037Z,73.47
2023-05-15T18:56:49.772Z,74.00
2023-05-15T19:01:53.705Z,74.07
2023-05-15T19:06:55.434Z,74.22
2023-05-15T19:11:59.979Z,74.48
2023-05-15T19:17:01.963Z,74.56
2023-05-15T19:22:04.030Z,74.98
2023-05-15T19:27:06.105Z,75.59
2023-05-15T19:32:08.576Z,75.96
2023-05-15T19:37:10.557Z,76.32
2023-05-15T19:42:12.439Z,76.47
2023-05-15T19:47:14.146Z,76.46
2023-05-15T19:52:16.462Z,76.92
2023-05-15T19:57:18.488Z,77.34
2023-05-15T20:02:20.379Z,77.88
2023-05-15T20:07:22.094Z,78.62
2023-05-15T20:12:23.800Z,79.66
2023-05-15T20:17:26.139Z,80.64
2023-05-15T20:22:27.985Z,81.58
2023-05-15T20:27:29.848Z,82.30
2023-05-15T20:32:31.930Z,83.09
2023-05-15T20:37:34.410Z,83.32
2023-05-15T20:42:36.337Z,83.55
2023-05-15T20:47:38.275Z,83.15
2023-05-15T20:52:40.290Z,82.61
2023-05-15T20:57:46.267Z,83.12
2023-05-15T21:02:48.207Z,83.44
2023-05-15T21:07:50.204Z,83.89
2023-05-15T21:12:51.807Z,83.96
2023-05-15T21:17:53.499Z,84.27
2023-05-15T21:22:55.272Z,84.92
2023-05-15T21:27:57.148Z,84.69
2023-05-15T21:32:59.146Z,84.14
2023-05-15T21:38:01.258Z,84.37
2023-05-15T21:43:02.888Z,84.53
2023-05-15T21:48:05.172Z,84.45
2023-05-15T21:53:07.404Z,84.68
2023-05-15T21:58:09.097Z,85.29
2023-05-15T22:03:11.631Z,85.18
2023-05-15T22:08:13.963Z,85.22
2023-05-15T22:13:15.781Z,85.02
2023-05-15T22:18:17.549Z,84.95
2023-05-15T22:23:19.389Z,85.14
2023-05-15T22:28:21.224Z,84.91
2023-05-15T22:33:24.372Z,84.20
2023-05-15T22:38:26.138Z,83.97
2023-05-15T22:43:27.825Z,84.09
2023-05-15T22:48:29.977Z,84.50
2023-05-15T22:53:31.909Z,85.30
2023-05-15T22:58:33.718Z,85.41
2023-05-15T23:03:35.585Z,85.04
2023-05-15T23:08:37.313Z,84.13
2023-05-15T23:13:38.987Z,84.68
2023-05-15T23:18:40.859Z,84.57
2023-05-15T23:23:42.584Z,84.58
2023-05-15T23:28:44.314Z,84.75
2023-05-15T23:33:45.913Z,85.56
2023-05-15T23:38:47.813Z,85.84
2023-05-15T23:43:52.226Z,85.96
2023-05-15T23:48:54.011Z,85.69
2023-05-15T23:53:56.122Z,85.49
2023-05-15T23:58:57.991Z,85.74
